sensor_id;sensor_type;location;lat;lon;timestamp;temperature;humidity
61641;HTU21D;62201;49.966;8.342;2023-03-01T00:01:38;0.32;69.87
61641;HTU21D;62201;49.966;8.342;2023-03-01T00:04:04;0.32;69.97
61641;HTU21D;62201;49.966;8.342;2023-03-01T00:06:29;0.33;70.03
61641;HTU21D;62201;49.966;8.342;2023-03-01T00:08:54;0.34;69.87
61641;HTU21D;62201;49.966;8.342;2023-03-01T00:11:22;0.34;70.03
61641;HTU21D;62201;49.966;8.342;2023-03-01T00:13:49;0.35;69.97
61641;HTU21D;62201;49.966;8.342;2023-03-01T00:16:18;0.36;69.90
61641;HTU21D;62201;49.966;8.342;2023-03-01T00:18:45;0.37;69.90
61641;HTU21D;62201;49.966;8.342;2023-03-01T00:21:11;0.35;69.99
61641;HTU21D;62201;49.966;8.342;2023-03-01T00:23:37;0.35;70.02
61641;HTU21D;62201;49.966;8.342;2023-03-01T00:26:07;0.31;70.15
61641;HTU21D;62201;49.966;8.342;2023-03-01T00:28:33;0.31;70.03
61641;HTU21D;62201;49.966;8.342;2023-03-01T00:31:05;0.31;70.18
61641;HTU21D;62201;49.966;8.342;2023-03-01T00:33:31;0.29;70.13
61641;HTU21D;62201;49.966;8.342;2023-03-01T00:35:58;0.25;70.25
61641;HTU21D;62201;49.966;8.342;2023-03-01T00:38:24;0.22;70.38
61641;HTU21D;62201;49.966;8.342;2023-03-01T00:40:49;0.19;70.47
61641;HTU21D;62201;49.966;8.342;2023-03-01T00:43:14;0.20;70.45
61641;HTU21D;62201;49.966;8.342;2023-03-01T00:45:40;0.20;70.57
61641;HTU21D;62201;49.966;8.342;2023-03-01T00:48:05;0.19;70.61
61641;HTU21D;62201;49.966;8.342;2023-03-01T00:50:31;0.18;70.57
61641;HTU21D;62201;49.966;8.342;2023-03-01T00:52:56;0.15;70.80
61641;HTU21D;62201;49.966;8.342;2023-03-01T00:55:22;0.13;70.81
61641;HTU21D;62201;49.966;8.342;2023-03-01T00:57:48;0.10;70.74
61641;HTU21D;62201;49.966;8.342;2023-03-01T01:00:13;0.10;70.81
61641;HTU21D;62201;49.966;8.342;2023-03-01T01:02:40;0.07;70.95
61641;HTU21D;62201;49.966;8.342;2023-03-01T01:05:05;0.08;70.83
61641;HTU21D;62201;49.966;8.342;2023-03-01T01:07:31;0.08;70.88
61641;HTU21D;62201;49.966;8.342;2023-03-01T01:09:56;0.08;70.87
61641;HTU21D;62201;49.966;8.342;2023-03-01T01:12:22;0.04;71.00
61641;HTU21D;62201;49.966;8.342;2023-03-01T01:14:47;0.03;71.10
61641;HTU21D;62201;49.966;8.342;2023-03-01T01:17:13;-0.00;71.23
61641;HTU21D;62201;49.966;8.342;2023-03-01T01:19:38;-0.07;71.59
61641;HTU21D;62201;49.966;8.342;2023-03-01T01:22:03;-0.12;71.75
61641;HTU21D;62201;49.966;8.342;2023-03-01T01:24:29;-0.13;71.78
61641;HTU21D;62201;49.966;8.342;2023-03-01T01:26:55;-0.16;71.97
61641;HTU21D;62201;49.966;8.342;2023-03-01T01:29:20;-0.15;71.89
61641;HTU21D;62201;49.966;8.342;2023-03-01T01:31:46;-0.20;71.64
61641;HTU21D;62201;49.966;8.342;2023-03-01T01:34:17;-0.13;72.02
61641;HTU21D;62201;49.966;8.342;2023-03-01T01:36:43;-0.09;71.96
61641;HTU21D;62201;49.966;8.342;2023-03-01T01:39:09;-0.07;71.61
61641;HTU21D;62201;49.966;8.342;2023-03-01T01:41:39;-0.02;71.62
61641;HTU21D;62201;49.966;8.342;2023-03-01T01:44:21;0.03;71.40
61641;HTU21D;62201;49.966;8.342;2023-03-01T01:47:04;0.04;71.40
61641;HTU21D;62201;49.966;8.342;2023-03-01T01:49:35;0.04;71.46
61641;HTU21D;62201;49.966;8.342;2023-03-01T01:54:41;0.05;71.23
61641;HTU21D;62201;49.966;8.342;2023-03-01T01:57:56;0.03;71.36
61641;HTU21D;62201;49.966;8.342;2023-03-01T02:00:07;0.01;71.48
61641;HTU21D;62201;49.966;8.342;2023-03-01T02:02:33;-0.01;71.62
61641;HTU21D;62201;49.966;8.342;2023-03-01T02:05:14;-0.00;71.66
61641;HTU21D;62201;49.966;8.342;2023-03-01T02:07:41;-0.05;71.62
61641;HTU21D;62201;49.966;8.342;2023-03-01T02:10:08;-0.00;71.73
61641;HTU21D;62201;49.966;8.342;2023-03-01T02:12:34;0.03;71.67
61641;HTU21D;62201;49.966;8.342;2023-03-01T02:14:59;0.07;71.67
61641;HTU21D;62201;49.966;8.342;2023-03-01T02:17:24;0.06;71.67
61641;HTU21D;62201;49.966;8.342;2023-03-01T02:20:14;0.08;71.78
61641;HTU21D;62201;49.966;8.342;2023-03-01T02:22:43;0.09;71.77
61641;HTU21D;62201;49.966;8.342;2023-03-01T02:25:33;0.16;71.69
61641;HTU21D;62201;49.966;8.342;2023-03-01T02:30:41;0.16;71.74
61641;HTU21D;62201;49.966;8.342;2023-03-01T02:33:27;0.17;71.73
61641;HTU21D;62201;49.966;8.342;2023-03-01T02:35:54;0.19;71.66
61641;HTU21D;62201;49.966;8.342;2023-03-01T02:38:20;0.20;71.74
61641;HTU21D;62201;49.966;8.342;2023-03-01T02:40:49;0.21;71.67
61641;HTU21D;62201;49.966;8.342;2023-03-01T02:43:16;0.21;71.69
61641;HTU21D;62201;49.966;8.342;2023-03-01T02:45:50;0.22;71.68
61641;HTU21D;62201;49.966;8.342;2023-03-01T02:48:16;0.21;71.67
61641;HTU21D;62201;49.966;8.342;2023-03-01T02:53:58;0.28;71.39
61641;HTU21D;62201;49.966;8.342;2023-03-01T02:56:28;0.30;71.33
61641;HTU21D;62201;49.966;8.342;2023-03-01T02:58:54;0.28;71.32
61641;HTU21D;62201;49.966;8.342;2023-03-01T03:01:26;0.28;71.35
61641;HTU21D;62201;49.966;8.342;2023-03-01T03:04:04;0.28;71.55
61641;HTU21D;62201;49.966;8.342;2023-03-01T03:06:30;0.29;71.46
61641;HTU21D;62201;49.966;8.342;2023-03-01T03:08:55;0.31;71.42
61641;HTU21D;62201;49.966;8.342;2023-03-01T03:11:21;0.32;71.36
61641;HTU21D;62201;49.966;8.342;2023-03-01T03:13:46;0.34;71.14
61641;HTU21D;62201;49.966;8.342;2023-03-01T03:16:13;0.34;71.16
61641;HTU21D;62201;49.966;8.342;2023-03-01T03:18:39;0.34;71.24
61641;HTU21D;62201;49.966;8.342;2023-03-01T03:21:08;0.34;71.15
61641;HTU21D;62201;49.966;8.342;2023-03-01T03:23:36;0.35;71.16
61641;HTU21D;62201;49.966;8.342;2023-03-01T03:26:02;0.34;71.17
61641;HTU21D;62201;49.966;8.342;2023-03-01T03:28:32;0.34;71.23
61641;HTU21D;62201;49.966;8.342;2023-03-01T03:30:58;0.36;71.15
61641;HTU21D;62201;49.966;8.342;2023-03-01T03:33:31;0.37;70.98
61641;HTU21D;62201;49.966;8.342;2023-03-01T03:35:56;0.37;71.10
61641;HTU21D;62201;49.966;8.342;2023-03-01T03:38:22;0.39;70.94
61641;HTU21D;62201;49.966;8.342;2023-03-01T03:40:52;0.39;70.87
61641;HTU21D;62201;49.966;8.342;2023-03-01T03:43:22;0.45;70.67
61641;HTU21D;62201;49.966;8.342;2023-03-01T03:45:49;0.43;70.63
61641;HTU21D;62201;49.966;8.342;2023-03-01T03:48:15;0.42;70.60
61641;HTU21D;62201;49.966;8.342;2023-03-01T03:50:41;0.40;70.72
61641;HTU21D;62201;49.966;8.342;2023-03-01T03:53:10;0.42;70.63
61641;HTU21D;62201;49.966;8.342;2023-03-01T03:55:36;0.40;70.63
61641;HTU21D;62201;49.966;8.342;2023-03-01T03:58:05;0.39;70.67
61641;HTU21D;62201;49.966;8.342;2023-03-01T04:00:40;0.38;70.71
61641;HTU21D;62201;49.966;8.342;2023-03-01T04:03:07;0.36;70.73
61641;HTU21D;62201;49.966;8.342;2023-03-01T04:05:33;0.38;70.57
61641;HTU21D;62201;49.966;8.342;2023-03-01T04:07:58;0.36;70.58
61641;HTU21D;62201;49.966;8.342;2023-03-01T04:10:31;0.36;70.48
61641;HTU21D;62201;49.966;8.342;2023-03-01T04:12:57;0.37;70.43
61641;HTU21D;62201;49.966;8.342;2023-03-01T04:15:24;0.40;70.15
61641;HTU21D;62201;49.966;8.342;2023-03-01T04:17:51;0.43;70.13
61641;HTU21D;62201;49.966;8.342;2023-03-01T04:20:22;0.43;70.09
61641;HTU21D;62201;49.966;8.342;2023-03-01T04:23:20;0.38;70.32
61641;HTU21D;62201;49.966;8.342;2023-03-01T04:25:50;0.37;70.23
61641;HTU21D;62201;49.966;8.342;2023-03-01T04:28:33;0.32;70.46
61641;HTU21D;62201;49.966;8.342;2023-03-01T04:31:03;0.32;70.42
61641;HTU21D;62201;49.966;8.342;2023-03-01T04:33:45;0.33;70.36
61641;HTU21D;62201;49.966;8.342;2023-03-01T04:36:12;0.33;70.32
61641;HTU21D;62201;49.966;8.342;2023-03-01T04:38:38;0.32;70.43
61641;HTU21D;62201;49.966;8.342;2023-03-01T04:41:09;0.29;70.42
61641;HTU21D;62201;49.966;8.342;2023-03-01T04:43:35;0.33;70.24
61641;HTU21D;62201;49.966;8.342;2023-03-01T04:46:05;0.31;70.35
61641;HTU21D;62201;49.966;8.342;2023-03-01T04:48:33;0.28;70.61
61641;HTU21D;62201;49.966;8.342;2023-03-01T04:50:59;0.27;70.58
61641;HTU21D;62201;49.966;8.342;2023-03-01T04:53:25;0.21;70.83
61641;HTU21D;62201;49.966;8.342;2023-03-01T04:55:50;0.21;70.79
61641;HTU21D;62201;49.966;8.342;2023-03-01T04:58:16;0.19;70.84
61641;HTU21D;62201;49.966;8.342;2023-03-01T05:00:41;0.20;70.81
61641;HTU21D;62201;49.966;8.342;2023-03-01T05:03:08;0.18;70.81
61641;HTU21D;62201;49.966;8.342;2023-03-01T05:05:38;0.17;70.84
61641;HTU21D;62201;49.966;8.342;2023-03-01T05:08:06;0.18;70.77
61641;HTU21D;62201;49.966;8.342;2023-03-01T05:10:34;0.19;70.71
61641;HTU21D;62201;49.966;8.342;2023-03-01T05:13:01;0.19;70.69
61641;HTU21D;62201;49.966;8.342;2023-03-01T05:15:29;0.18;70.90
61641;HTU21D;62201;49.966;8.342;2023-03-01T05:17:56;0.18;70.83
61641;HTU21D;62201;49.966;8.342;2023-03-01T05:20:25;0.16;70.90
61641;HTU21D;62201;49.966;8.342;2023-03-01T05:22:52;0.15;70.95
61641;HTU21D;62201;49.966;8.342;2023-03-01T05:25:19;0.10;71.13
61641;HTU21D;62201;49.966;8.342;2023-03-01T05:27:46;0.07;71.36
61641;HTU21D;62201;49.966;8.342;2023-03-01T05:30:12;0.08;71.59
61641;HTU21D;62201;49.966;8.342;2023-03-01T05:32:46;0.09;71.35
61641;HTU21D;62201;49.966;8.342;2023-03-01T05:35:13;0.08;71.29
61641;HTU21D;62201;49.966;8.342;2023-03-01T05:37:43;0.08;71.42
61641;HTU21D;62201;49.966;8.342;2023-03-01T05:40:23;0.10;71.92
61641;HTU21D;62201;49.966;8.342;2023-03-01T05:42:54;0.18;72.03
61641;HTU21D;62201;49.966;8.342;2023-03-01T05:45:20;0.16;71.42
61641;HTU21D;62201;49.966;8.342;2023-03-01T05:47:48;0.14;71.45
61641;HTU21D;62201;49.966;8.342;2023-03-01T05:50:21;0.13;71.43
61641;HTU21D;62201;49.966;8.342;2023-03-01T05:52:50;0.14;71.35
61641;HTU21D;62201;49.966;8.342;2023-03-01T05:55:17;0.14;71.31
61641;HTU21D;62201;49.966;8.342;2023-03-01T05:57:42;0.14;71.40
61641;HTU21D;62201;49.966;8.342;2023-03-01T06:00:09;0.09;71.45
61641;HTU21D;62201;49.966;8.342;2023-03-01T06:02:35;0.08;71.50
61641;HTU21D;62201;49.966;8.342;2023-03-01T06:05:00;0.10;71.35
61641;HTU21D;62201;49.966;8.342;2023-03-01T06:07:26;0.09;71.48
61641;HTU21D;62201;49.966;8.342;2023-03-01T06:09:51;0.13;71.36
61641;HTU21D;62201;49.966;8.342;2023-03-01T06:12:17;0.17;71.11
61641;HTU21D;62201;49.966;8.342;2023-03-01T06:14:42;0.24;70.84
61641;HTU21D;62201;49.966;8.342;2023-03-01T06:17:08;0.27;70.76
61641;HTU21D;62201;49.966;8.342;2023-03-01T06:19:33;0.31;70.57
61641;HTU21D;62201;49.966;8.342;2023-03-01T06:21:58;0.37;70.31
61641;HTU21D;62201;49.966;8.342;2023-03-01T06:24:24;0.43;70.13
61641;HTU21D;62201;49.966;8.342;2023-03-01T06:26:49;0.48;69.82
61641;HTU21D;62201;49.966;8.342;2023-03-01T06:29:14;0.52;69.79
61641;HTU21D;62201;49.966;8.342;2023-03-01T06:31:40;0.54;69.78
61641;HTU21D;62201;49.966;8.342;2023-03-01T06:34:05;0.58;69.76
61641;HTU21D;62201;49.966;8.342;2023-03-01T06:36:31;0.62;69.69
61641;HTU21D;62201;49.966;8.342;2023-03-01T06:38:56;0.62;69.51
61641;HTU21D;62201;49.966;8.342;2023-03-01T06:41:21;0.64;69.52
61641;HTU21D;62201;49.966;8.342;2023-03-01T06:43:47;0.66;69.45
61641;HTU21D;62201;49.966;8.342;2023-03-01T06:46:12;0.69;69.05
61641;HTU21D;62201;49.966;8.342;2023-03-01T06:48:37;0.73;69.05
61641;HTU21D;62201;49.966;8.342;2023-03-01T06:51:03;0.72;69.12
61641;HTU21D;62201;49.966;8.342;2023-03-01T06:53:29;0.71;69.15
61641;HTU21D;62201;49.966;8.342;2023-03-01T06:55:56;0.73;69.26
61641;HTU21D;62201;49.966;8.342;2023-03-01T06:58:22;0.72;69.16
61641;HTU21D;62201;49.966;8.342;2023-03-01T07:00:47;0.73;69.14
61641;HTU21D;62201;49.966;8.342;2023-03-01T07:03:13;0.71;69.13
61641;HTU21D;62201;49.966;8.342;2023-03-01T07:05:38;0.72;68.85
61641;HTU21D;62201;49.966;8.342;2023-03-01T07:08:03;0.72;68.76
61641;HTU21D;62201;49.966;8.342;2023-03-01T07:10:29;0.69;68.90
61641;HTU21D;62201;49.966;8.342;2023-03-01T07:12:56;0.72;68.87
61641;HTU21D;62201;49.966;8.342;2023-03-01T07:15:21;0.69;68.75
61641;HTU21D;62201;49.966;8.342;2023-03-01T07:17:47;0.72;68.55
61641;HTU21D;62201;49.966;8.342;2023-03-01T07:20:15;0.76;68.49
61641;HTU21D;62201;49.966;8.342;2023-03-01T07:22:40;0.76;68.52
61641;HTU21D;62201;49.966;8.342;2023-03-01T07:25:07;0.77;68.58
61641;HTU21D;62201;49.966;8.342;2023-03-01T07:27:33;0.78;68.68
61641;HTU21D;62201;49.966;8.342;2023-03-01T07:29:58;0.83;68.60
61641;HTU21D;62201;49.966;8.342;2023-03-01T07:32:23;0.87;68.59
61641;HTU21D;62201;49.966;8.342;2023-03-01T07:34:50;0.94;68.48
61641;HTU21D;62201;49.966;8.342;2023-03-01T07:37:16;0.98;68.51
61641;HTU21D;62201;49.966;8.342;2023-03-01T07:39:41;1.03;68.54
61641;HTU21D;62201;49.966;8.342;2023-03-01T07:42:07;1.08;68.43
61641;HTU21D;62201;49.966;8.342;2023-03-01T07:44:32;1.16;68.26
61641;HTU21D;62201;49.966;8.342;2023-03-01T07:46:59;1.22;67.84
61641;HTU21D;62201;49.966;8.342;2023-03-01T07:49:24;1.28;67.69
61641;HTU21D;62201;49.966;8.342;2023-03-01T07:51:51;1.36;67.65
61641;HTU21D;62201;49.966;8.342;2023-03-01T07:54:17;1.43;67.39
61641;HTU21D;62201;49.966;8.342;2023-03-01T07:56:43;1.52;67.36
61641;HTU21D;62201;49.966;8.342;2023-03-01T07:59:08;1.61;67.07
61641;HTU21D;62201;49.966;8.342;2023-03-01T08:01:34;1.68;66.72
61641;HTU21D;62201;49.966;8.342;2023-03-01T08:03:59;1.73;66.56
61641;HTU21D;62201;49.966;8.342;2023-03-01T08:06:25;1.82;66.46
61641;HTU21D;62201;49.966;8.342;2023-03-01T08:08:50;1.90;66.05
61641;HTU21D;62201;49.966;8.342;2023-03-01T08:11:16;1.93;65.42
61641;HTU21D;62201;49.966;8.342;2023-03-01T08:13:42;1.96;64.88
61641;HTU21D;62201;49.966;8.342;2023-03-01T08:16:12;2.02;65.13
61641;HTU21D;62201;49.966;8.342;2023-03-01T08:18:37;2.13;64.87
61641;HTU21D;62201;49.966;8.342;2023-03-01T08:21:08;2.27;64.63
61641;HTU21D;62201;49.966;8.342;2023-03-01T08:23:34;2.41;63.50
61641;HTU21D;62201;49.966;8.342;2023-03-01T08:26:15;2.57;62.89
61641;HTU21D;62201;49.966;8.342;2023-03-01T08:28:41;2.78;62.66
61641;HTU21D;62201;49.966;8.342;2023-03-01T08:31:21;2.89;62.02
61641;HTU21D;62201;49.966;8.342;2023-03-01T08:33:48;2.94;61.28
61641;HTU21D;62201;49.966;8.342;2023-03-01T08:36:17;3.03;61.34
61641;HTU21D;62201;49.966;8.342;2023-03-01T08:38:43;3.30;60.31
61641;HTU21D;62201;49.966;8.342;2023-03-01T08:41:08;3.38;60.88
61641;HTU21D;62201;49.966;8.342;2023-03-01T08:43:34;3.48;60.34
61641;HTU21D;62201;49.966;8.342;2023-03-01T08:45:59;3.55;59.19
61641;HTU21D;62201;49.966;8.342;2023-03-01T08:48:25;3.80;58.68
61641;HTU21D;62201;49.966;8.342;2023-03-01T08:50:52;3.73;58.16
61641;HTU21D;62201;49.966;8.342;2023-03-01T08:53:17;4.02;58.16
61641;HTU21D;62201;49.966;8.342;2023-03-01T08:55:43;4.26;57.61
61641;HTU21D;62201;49.966;8.342;2023-03-01T08:58:08;4.43;57.09
61641;HTU21D;62201;49.966;8.342;2023-03-01T09:00:34;4.44;56.22
61641;HTU21D;62201;49.966;8.342;2023-03-01T09:03:00;4.38;56.42
61641;HTU21D;62201;49.966;8.342;2023-03-01T09:05:25;4.36;55.98
61641;HTU21D;62201;49.966;8.342;2023-03-01T09:07:50;4.23;56.03
61641;HTU21D;62201;49.966;8.342;2023-03-01T09:10:16;4.30;55.88
61641;HTU21D;62201;49.966;8.342;2023-03-01T09:12:41;4.54;55.07
61641;HTU21D;62201;49.966;8.342;2023-03-01T09:15:07;4.45;54.66
61641;HTU21D;62201;49.966;8.342;2023-03-01T09:17:32;4.60;54.14
61641;HTU21D;62201;49.966;8.342;2023-03-01T09:19:58;4.53;54.40
61641;HTU21D;62201;49.966;8.342;2023-03-01T09:22:24;4.67;53.97
61641;HTU21D;62201;49.966;8.342;2023-03-01T09:24:50;4.80;53.75
61641;HTU21D;62201;49.966;8.342;2023-03-01T09:27:15;5.04;53.10
61641;HTU21D;62201;49.966;8.342;2023-03-01T09:29:44;5.00;53.27
61641;HTU21D;62201;49.966;8.342;2023-03-01T09:32:09;5.05;53.01
61641;HTU21D;62201;49.966;8.342;2023-03-01T09:34:35;5.06;53.21
61641;HTU21D;62201;49.966;8.342;2023-03-01T09:37:20;5.37;52.85
61641;HTU21D;62201;49.966;8.342;2023-03-01T09:39:49;5.51;51.79
61641;HTU21D;62201;49.966;8.342;2023-03-01T09:42:15;6.12;50.55
61641;HTU21D;62201;49.966;8.342;2023-03-01T09:44:54;5.99;49.71
61641;HTU21D;62201;49.966;8.342;2023-03-01T09:47:34;6.48;49.16
61641;HTU21D;62201;49.966;8.342;2023-03-01T09:50:18;6.57;48.23
61641;HTU21D;62201;49.966;8.342;2023-03-01T09:53:01;7.08;47.63
61641;HTU21D;62201;49.966;8.342;2023-03-01T09:55:37;7.34;47.01
61641;HTU21D;62201;49.966;8.342;2023-03-01T10:00:49;6.89;47.55
61641;HTU21D;62201;49.966;8.342;2023-03-01T10:03:23;6.94;47.73
61641;HTU21D;62201;49.966;8.342;2023-03-01T10:05:59;7.40;46.33
61641;HTU21D;62201;49.966;8.342;2023-03-01T10:08:40;7.70;46.15
61641;HTU21D;62201;49.966;8.342;2023-03-01T10:11:37;7.62;46.39
61641;HTU21D;62201;49.966;8.342;2023-03-01T10:16:57;7.83;45.79
61641;HTU21D;62201;49.966;8.342;2023-03-01T10:22:30;7.74;45.86
61641;HTU21D;62201;49.966;8.342;2023-03-01T10:24:58;7.42;46.47
61641;HTU21D;62201;49.966;8.342;2023-03-01T10:27:40;7.62;46.36
61641;HTU21D;62201;49.966;8.342;2023-03-01T10:30:18;7.40;46.50
61641;HTU21D;62201;49.966;8.342;2023-03-01T10:32:46;7.40;46.18
61641;HTU21D;62201;49.966;8.342;2023-03-01T10:35:19;7.38;46.61
61641;HTU21D;62201;49.966;8.342;2023-03-01T10:38:05;7.48;46.47
61641;HTU21D;62201;49.966;8.342;2023-03-01T10:40:32;7.65;46.02
61641;HTU21D;62201;49.966;8.342;2023-03-01T10:43:00;7.82;45.69
61641;HTU21D;62201;49.966;8.342;2023-03-01T10:51:17;7.44;46.22
61641;HTU21D;62201;49.966;8.342;2023-03-01T10:53:49;7.43;46.41
61641;HTU21D;62201;49.966;8.342;2023-03-01T10:56:16;7.55;46.60
61641;HTU21D;62201;49.966;8.342;2023-03-01T10:59:05;7.45;46.25
61641;HTU21D;62201;49.966;8.342;2023-03-01T11:01:33;7.64;45.71
61641;HTU21D;62201;49.966;8.342;2023-03-01T11:04:12;7.61;46.22
61641;HTU21D;62201;49.966;8.342;2023-03-01T11:06:41;8.00;45.61
61641;HTU21D;62201;49.966;8.342;2023-03-01T11:09:23;7.71;45.50
61641;HTU21D;62201;49.966;8.342;2023-03-01T11:11:55;7.75;45.42
61641;HTU21D;62201;49.966;8.342;2023-03-01T11:14:26;7.63;45.44
61641;HTU21D;62201;49.966;8.342;2023-03-01T11:17:00;7.49;45.94
61641;HTU21D;62201;49.966;8.342;2023-03-01T11:19:38;7.53;46.01
61641;HTU21D;62201;49.966;8.342;2023-03-01T11:22:14;7.64;45.35
61641;HTU21D;62201;49.966;8.342;2023-03-01T11:24:48;8.05;44.65
61641;HTU21D;62201;49.966;8.342;2023-03-01T11:27:40;7.90;45.12
61641;HTU21D;62201;49.966;8.342;2023-03-01T11:30:41;7.83;45.23
61641;HTU21D;62201;49.966;8.342;2023-03-01T11:33:46;7.67;45.35
61641;HTU21D;62201;49.966;8.342;2023-03-01T11:36:30;8.11;44.48
61641;HTU21D;62201;49.966;8.342;2023-03-01T11:45:09;8.32;44.22
61641;HTU21D;62201;49.966;8.342;2023-03-01T11:50:44;8.56;43.35
61641;HTU21D;62201;49.966;8.342;2023-03-01T12:07:50;8.88;42.83
61641;HTU21D;62201;49.966;8.342;2023-03-01T12:10:27;8.62;42.65
61641;HTU21D;62201;49.966;8.342;2023-03-01T12:21:34;8.39;43.08
61641;HTU21D;62201;49.966;8.342;2023-03-01T12:33:14;8.70;42.26
61641;HTU21D;62201;49.966;8.342;2023-03-01T12:41:46;8.96;41.25
61641;HTU21D;62201;49.966;8.342;2023-03-01T12:53:36;9.36;39.29
61641;HTU21D;62201;49.966;8.342;2023-03-01T12:56:36;9.15;39.30
61641;HTU21D;62201;49.966;8.342;2023-03-01T12:59:27;9.02;40.29
61641;HTU21D;62201;49.966;8.342;2023-03-01T13:02:06;8.97;40.94
61641;HTU21D;62201;49.966;8.342;2023-03-01T13:05:07;8.98;40.52
61641;HTU21D;62201;49.966;8.342;2023-03-01T13:07:41;8.89;40.96
61641;HTU21D;62201;49.966;8.342;2023-03-01T13:12:52;9.04;40.13
61641;HTU21D;62201;49.966;8.342;2023-03-01T13:15:33;9.10;39.75
61641;HTU21D;62201;49.966;8.342;2023-03-01T13:20:48;9.51;39.75
61641;HTU21D;62201;49.966;8.342;2023-03-01T13:31:04;9.42;38.75
61641;HTU21D;62201;49.966;8.342;2023-03-01T13:36:00;9.66;38.19
61641;HTU21D;62201;49.966;8.342;2023-03-01T13:41:17;9.62;37.62
61641;HTU21D;62201;49.966;8.342;2023-03-01T13:43:46;9.46;37.86
61641;HTU21D;62201;49.966;8.342;2023-03-01T13:46:24;9.78;37.86
61641;HTU21D;62201;49.966;8.342;2023-03-01T13:48:55;9.74;37.61
61641;HTU21D;62201;49.966;8.342;2023-03-01T13:51:31;9.70;37.93
61641;HTU21D;62201;49.966;8.342;2023-03-01T13:53:57;9.63;37.84
61641;HTU21D;62201;49.966;8.342;2023-03-01T13:56:28;9.57;38.07
61641;HTU21D;62201;49.966;8.342;2023-03-01T13:59:01;9.70;38.00
61641;HTU21D;62201;49.966;8.342;2023-03-01T14:01:30;9.91;37.13
61641;HTU21D;62201;49.966;8.342;2023-03-01T14:03:56;10.11;36.80
61641;HTU21D;62201;49.966;8.342;2023-03-01T14:06:30;10.22;36.27
61641;HTU21D;62201;49.966;8.342;2023-03-01T14:09:26;10.43;36.47
61641;HTU21D;62201;49.966;8.342;2023-03-01T14:15:24;10.90;34.59
61641;HTU21D;62201;49.966;8.342;2023-03-01T14:18:12;11.00;34.70
61641;HTU21D;62201;49.966;8.342;2023-03-01T14:20:43;10.81;34.99
61641;HTU21D;62201;49.966;8.342;2023-03-01T14:23:24;10.84;34.70
61641;HTU21D;62201;49.966;8.342;2023-03-01T14:26:02;11.05;34.68
61641;HTU21D;62201;49.966;8.342;2023-03-01T14:28:34;11.05;34.64
61641;HTU21D;62201;49.966;8.342;2023-03-01T14:31:40;11.31;34.39
61641;HTU21D;62201;49.966;8.342;2023-03-01T14:34:20;11.32;34.16
61641;HTU21D;62201;49.966;8.342;2023-03-01T14:36:46;11.46;33.92
61641;HTU21D;62201;49.966;8.342;2023-03-01T14:39:19;11.52;33.70
61641;HTU21D;62201;49.966;8.342;2023-03-01T14:41:53;11.72;33.97
61641;HTU21D;62201;49.966;8.342;2023-03-01T14:44:25;11.31;34.28
61641;HTU21D;62201;49.966;8.342;2023-03-01T14:46:55;11.78;33.79
61641;HTU21D;62201;49.966;8.342;2023-03-01T14:49:31;11.82;33.34
61641;HTU21D;62201;49.966;8.342;2023-03-01T14:52:02;11.88;33.53
61641;HTU21D;62201;49.966;8.342;2023-03-01T14:54:48;11.97;33.20
61641;HTU21D;62201;49.966;8.342;2023-03-01T14:57:47;11.93;33.15
61641;HTU21D;62201;49.966;8.342;2023-03-01T15:01:02;12.13;33.20
61641;HTU21D;62201;49.966;8.342;2023-03-01T15:03:55;11.83;33.24
61641;HTU21D;62201;49.966;8.342;2023-03-01T15:09:42;11.52;33.70
61641;HTU21D;62201;49.966;8.342;2023-03-01T15:14:56;11.68;33.60
61641;HTU21D;62201;49.966;8.342;2023-03-01T15:17:38;11.67;33.46
61641;HTU21D;62201;49.966;8.342;2023-03-01T15:20:06;11.64;33.67
61641;HTU21D;62201;49.966;8.342;2023-03-01T15:22:35;11.57;33.80
61641;HTU21D;62201;49.966;8.342;2023-03-01T15:25:01;11.46;34.07
61641;HTU21D;62201;49.966;8.342;2023-03-01T15:27:54;11.77;33.76
61641;HTU21D;62201;49.966;8.342;2023-03-01T15:30:41;11.26;34.18
61641;HTU21D;62201;49.966;8.342;2023-03-01T15:33:29;11.43;33.87
61641;HTU21D;62201;49.966;8.342;2023-03-01T15:35:58;11.36;34.06
61641;HTU21D;62201;49.966;8.342;2023-03-01T15:40:59;11.11;34.63
61641;HTU21D;62201;49.966;8.342;2023-03-01T15:43:45;11.14;34.67
61641;HTU21D;62201;49.966;8.342;2023-03-01T15:46:38;11.19;34.21
61641;HTU21D;62201;49.966;8.342;2023-03-01T15:49:18;11.16;34.15
61641;HTU21D;62201;49.966;8.342;2023-03-01T15:51:49;11.16;34.32
61641;HTU21D;62201;49.966;8.342;2023-03-01T15:54:22;10.81;34.59
61641;HTU21D;62201;49.966;8.342;2023-03-01T15:56:58;10.80;34.66
61641;HTU21D;62201;49.966;8.342;2023-03-01T15:59:24;10.77;34.75
61641;HTU21D;62201;49.966;8.342;2023-03-01T16:01:51;10.80;34.78
61641;HTU21D;62201;49.966;8.342;2023-03-01T16:04:22;11.07;34.47
61641;HTU21D;62201;49.966;8.342;2023-03-01T16:06:56;10.90;34.74
61641;HTU21D;62201;49.966;8.342;2023-03-01T16:09:25;10.62;35.48
61641;HTU21D;62201;49.966;8.342;2023-03-01T16:11:54;10.79;35.28
61641;HTU21D;62201;49.966;8.342;2023-03-01T16:14:21;10.70;35.32
61641;HTU21D;62201;49.966;8.342;2023-03-01T16:16:51;10.55;35.60
61641;HTU21D;62201;49.966;8.342;2023-03-01T16:19:17;10.43;36.22
61641;HTU21D;62201;49.966;8.342;2023-03-01T16:21:51;10.42;36.71
61641;HTU21D;62201;49.966;8.342;2023-03-01T16:24:17;10.27;36.99
61641;HTU21D;62201;49.966;8.342;2023-03-01T16:26:55;9.98;37.53
61641;HTU21D;62201;49.966;8.342;2023-03-01T16:29:26;9.97;37.84
61641;HTU21D;62201;49.966;8.342;2023-03-01T16:31:55;9.74;38.36
61641;HTU21D;62201;49.966;8.342;2023-03-01T16:34:23;9.40;39.19
61641;HTU21D;62201;49.966;8.342;2023-03-01T16:36:49;8.88;40.35
61641;HTU21D;62201;49.966;8.342;2023-03-01T16:39:22;8.48;41.39
61641;HTU21D;62201;49.966;8.342;2023-03-01T16:41:53;8.21;41.99
61641;HTU21D;62201;49.966;8.342;2023-03-01T16:44:18;7.98;42.66
61641;HTU21D;62201;49.966;8.342;2023-03-01T16:46:47;7.77;43.36
61641;HTU21D;62201;49.966;8.342;2023-03-01T16:49:27;7.60;43.51
61641;HTU21D;62201;49.966;8.342;2023-03-01T16:51:55;7.44;44.09
61641;HTU21D;62201;49.966;8.342;2023-03-01T16:54:23;7.32;44.45
61641;HTU21D;62201;49.966;8.342;2023-03-01T16:56:49;7.25;44.53
61641;HTU21D;62201;49.966;8.342;2023-03-01T16:59:18;7.16;44.54
61641;HTU21D;62201;49.966;8.342;2023-03-01T17:01:44;7.05;44.67
61641;HTU21D;62201;49.966;8.342;2023-03-01T17:04:13;6.97;44.68
61641;HTU21D;62201;49.966;8.342;2023-03-01T17:06:41;6.97;44.32
61641;HTU21D;62201;49.966;8.342;2023-03-01T17:09:06;6.87;44.58
61641;HTU21D;62201;49.966;8.342;2023-03-01T17:11:35;6.80;44.61
61641;HTU21D;62201;49.966;8.342;2023-03-01T17:14:01;6.75;44.60
61641;HTU21D;62201;49.966;8.342;2023-03-01T17:16:29;6.66;44.81
61641;HTU21D;62201;49.966;8.342;2023-03-01T17:18:57;6.58;45.03
61641;HTU21D;62201;49.966;8.342;2023-03-01T17:21:25;6.55;45.18
61641;HTU21D;62201;49.966;8.342;2023-03-01T17:23:55;6.50;45.54
61641;HTU21D;62201;49.966;8.342;2023-03-01T17:26:20;6.42;45.61
61641;HTU21D;62201;49.966;8.342;2023-03-01T17:28:46;6.38;45.70
61641;HTU21D;62201;49.966;8.342;2023-03-01T17:31:16;6.35;45.61
61641;HTU21D;62201;49.966;8.342;2023-03-01T17:33:41;6.30;45.65
61641;HTU21D;62201;49.966;8.342;2023-03-01T17:36:06;6.23;45.73
61641;HTU21D;62201;49.966;8.342;2023-03-01T17:38:32;6.20;45.70